createdAt,value
2023-07-26T00:01:07.725Z,96.97
2023-07-26T00:03:34.160Z,97.39
2023-07-26T00:06:00.669Z,96.96
2023-07-26T00:08:27.052Z,97.57
2023-07-26T00:10:53.436Z,97.68
2023-07-26T00:13:19.794Z,97.65
2023-07-26T00:15:46.273Z,97.56
2023-07-26T00:18:12.703Z,97.88
2023-07-26T00:20:39.144Z,98.30
2023-07-26T00:23:05.568Z,98.64
2023-07-26T00:25:31.967Z,98.70
2023-07-26T00:27:58.350Z,98.99
2023-07-26T00:30:24.735Z,99.09
2023-07-26T00:32:51.190Z,99.21
2023-07-26T00:35:22.405Z,99.50
2023-07-26T00:37:51.045Z,99.49
2023-07-26T00:40:17.495Z,99.63
2023-07-26T00:42:43.862Z,99.88
2023-07-26T00:45:11.097Z,100.00
2023-07-26T00:47:37.982Z,100.00
2023-07-26T00:50:05.715Z,100.00
2023-07-26T00:52:32.835Z,100.00
2023-07-26T00:54:59.981Z,100.00
2023-07-26T00:57:26.354Z,100.00
2023-07-26T00:59:53.472Z,100.00
2023-07-26T01:02:19.907Z,100.00
2023-07-26T01:04:46.338Z,100.00
2023-07-26T01:07:23.013Z,100.00
2023-07-26T01:10:02.092Z,100.00
2023-07-26T01:12:38.227Z,100.00
2023-07-26T01:15:16.029Z,100.00
2023-07-26T01:17:42.456Z,100.00
2023-07-26T01:20:09.058Z,100.00
2023-07-26T01:22:35.424Z,100.00
2023-07-26T01:25:01.838Z,100.00
2023-07-26T01:27:28.219Z,100.00
2023-07-26T01:29:54.705Z,100.00
2023-07-26T01:32:22.829Z,100.00
2023-07-26T01:34:49.934Z,100.00
2023-07-26T01:37:18.754Z,100.00
2023-07-26T01:39:45.715Z,100.00
2023-07-26T01:42:12.555Z,100.00
2023-07-26T01:44:39.036Z,100.00
2023-07-26T01:47:05.552Z,100.00
2023-07-26T01:49:32.018Z,100.00
2023-07-26T01:51:58.370Z,100.00
2023-07-26T01:54:24.752Z,100.00
2023-07-26T01:56:51.123Z,100.00
2023-07-26T01:59:17.508Z,100.00
2023-07-26T02:01:43.937Z,100.00
2023-07-26T02:04:10.355Z,100.00
2023-07-26T02:06:36.738Z,100.00
2023-07-26T02:09:03.271Z,100.00
2023-07-26T02:11:29.653Z,100.00
2023-07-26T02:13:56.081Z,100.00
2023-07-26T02:16:22.553Z,100.00
2023-07-26T02:18:48.951Z,100.00
2023-07-26T02:21:15.366Z,100.00
2023-07-26T02:23:41.834Z,100.00
2023-07-26T02:26:08.203Z,100.00
2023-07-26T02:28:34.581Z,100.00
2023-07-26T02:31:00.960Z,100.00
2023-07-26T02:33:27.375Z,100.00
2023-07-26T02:35:53.727Z,100.00
2023-07-26T02:38:20.112Z,100.00
2023-07-26T02:40:46.460Z,100.00
2023-07-26T02:43:13.941Z,100.00
2023-07-26T02:45:44.115Z,100.00
2023-07-26T02:48:10.608Z,100.00
2023-07-26T02:50:37.044Z,100.00
2023-07-26T02:53:03.433Z,100.00
2023-07-26T02:55:29.805Z,100.00
2023-07-26T02:57:56.241Z,100.00
2023-07-26T03:00:22.672Z,100.00
2023-07-26T03:02:49.126Z,100.00
2023-07-26T03:05:15.691Z,100.00
2023-07-26T03:07:42.085Z,100.00
2023-07-26T03:10:08.896Z,100.00
2023-07-26T03:12:35.279Z,100.00
2023-07-26T03:15:01.753Z,100.00
2023-07-26T03:17:28.154Z,100.00
2023-07-26T03:19:54.554Z,100.00
2023-07-26T03:22:20.910Z,100.00
2023-07-26T03:24:47.337Z,100.00
2023-07-26T03:27:13.765Z,100.00
2023-07-26T03:29:40.189Z,100.00
2023-07-26T03:32:07.366Z,100.00
2023-07-26T03:34:34.002Z,100.00
2023-07-26T03:37:01.167Z,100.00
2023-07-26T03:39:27.572Z,100.00
2023-07-26T03:41:55.038Z,100.00
2023-07-26T03:44:21.432Z,100.00
2023-07-26T03:46:47.928Z,100.00
2023-07-26T03:49:14.338Z,100.00
2023-07-26T03:51:40.726Z,100.00
2023-07-26T03:54:07.098Z,100.00
2023-07-26T03:56:33.725Z,100.00
2023-07-26T03:59:00.425Z,100.00
2023-07-26T04:01:26.999Z,100.00
2023-07-26T04:03:53.577Z,100.00
2023-07-26T04:06:20.075Z,100.00
2023-07-26T04:08:47.512Z,100.00
2023-07-26T04:11:13.939Z,100.00
2023-07-26T04:13:40.329Z,100.00
2023-07-26T04:16:33.114Z,100.00
2023-07-26T04:18:59.855Z,100.00
2023-07-26T04:21:26.232Z,100.00
2023-07-26T04:23:52.622Z,100.00
2023-07-26T04:26:18.960Z,100.00
2023-07-26T04:28:45.322Z,100.00
2023-07-26T04:31:11.755Z,100.00
2023-07-26T04:33:38.158Z,100.00
2023-07-26T04:36:04.712Z,100.00
2023-07-26T04:38:31.111Z,100.00
2023-07-26T04:40:57.460Z,100.00
2023-07-26T04:43:23.869Z,100.00
2023-07-26T04:45:51.500Z,100.00
2023-07-26T04:48:19.352Z,100.00
2023-07-26T04:50:47.414Z,100.00
2023-07-26T04:53:14.131Z,100.00
2023-07-26T04:55:51.710Z,100.00
2023-07-26T04:58:19.357Z,100.00
2023-07-26T05:00:46.042Z,100.00
2023-07-26T05:03:12.805Z,100.00
2023-07-26T05:05:40.161Z,100.00
2023-07-26T05:08:07.732Z,100.00
2023-07-26T05:10:34.880Z,100.00
2023-07-26T05:13:01.782Z,100.00
2023-07-26T05:15:28.179Z,100.00
2023-07-26T05:17:54.719Z,100.00
2023-07-26T05:20:21.152Z,100.00
2023-07-26T05:22:47.514Z,100.00
2023-07-26T05:25:13.906Z,100.00
2023-07-26T05:27:40.260Z,100.00
2023-07-26T05:30:07.349Z,100.00
2023-07-26T05:32:33.784Z,100.00
2023-07-26T05:35:00.186Z,100.00
2023-07-26T05:37:26.627Z,100.00
2023-07-26T05:39:53.108Z,100.00
2023-07-26T05:42:19.972Z,100.00
2023-07-26T05:44:46.420Z,100.00
2023-07-26T05:47:14.871Z,100.00
2023-07-26T05:49:44.934Z,100.00
2023-07-26T05:52:11.660Z,100.00
2023-07-26T05:54:38.090Z,100.00
2023-07-26T05:57:05.038Z,100.00
2023-07-26T05:59:31.515Z,100.00
2023-07-26T06:01:57.958Z,100.00
2023-07-26T06:04:24.346Z,100.00
2023-07-26T06:06:50.773Z,100.00
2023-07-26T06:09:17.300Z,100.00
2023-07-26T06:11:56.186Z,100.00
2023-07-26T06:14:23.414Z,100.00
2023-07-26T06:16:49.888Z,100.00
2023-07-26T06:19:16.713Z,100.00
2023-07-26T06:21:43.068Z,100.00
2023-07-26T06:24:09.440Z,100.00
2023-07-26T06:26:35.807Z,100.00
2023-07-26T06:29:02.188Z,100.00
2023-07-26T06:31:28.615Z,100.00
2023-07-26T06:33:55.009Z,100.00
2023-07-26T06:36:21.467Z,100.00
2023-07-26T06:38:47.853Z,100.00
2023-07-26T06:41:14.225Z,100.00
2023-07-26T06:43:40.551Z,99.65
2023-07-26T06:46:06.954Z,98.95
2023-07-26T06:48:33.365Z,97.73
2023-07-26T06:51:03.664Z,96.65
2023-07-26T06:53:30.049Z,95.55
2023-07-26T06:56:00.261Z,94.92
2023-07-26T06:58:26.842Z,94.52
2023-07-26T07:00:54.026Z,94.47
2023-07-26T07:03:20.469Z,95.02
2023-07-26T07:05:47.085Z,95.47
2023-07-26T07:08:13.606Z,95.77
2023-07-26T07:10:40.045Z,96.37
2023-07-26T07:13:06.460Z,97.65
2023-07-26T07:15:32.929Z,98.43
2023-07-26T07:18:14.339Z,99.21
2023-07-26T07:20:42.577Z,100.00
2023-07-26T07:23:08.965Z,100.00
2023-07-26T07:25:38.176Z,100.00
2023-07-26T07:28:04.725Z,100.00
2023-07-26T07:30:33.172Z,100.00
2023-07-26T07:32:59.598Z,100.00
2023-07-26T07:35:26.071Z,100.00
2023-07-26T07:37:52.432Z,100.00
2023-07-26T07:40:19.034Z,100.00
2023-07-26T07:42:45.484Z,100.00
2023-07-26T07:45:11.844Z,100.00
2023-07-26T07:47:38.315Z,100.00
2023-07-26T07:50:05.047Z,100.00
2023-07-26T07:52:33.426Z,100.00
2023-07-26T07:54:59.796Z,100.00
2023-07-26T07:57:26.239Z,100.00
2023-07-26T07:59:54.273Z,100.00
2023-07-26T08:02:22.121Z,100.00
2023-07-26T08:04:48.474Z,100.00
2023-07-26T08:07:14.898Z,100.00
2023-07-26T08:09:44.374Z,100.00
2023-07-26T08:12:10.791Z,100.00
2023-07-26T08:14:37.250Z,100.00
2023-07-26T08:17:03.905Z,100.00
2023-07-26T08:19:30.333Z,100.00
2023-07-26T08:21:56.724Z,97.64
2023-07-26T08:24:23.852Z,89.40
2023-07-26T08:26:50.809Z,86.16
2023-07-26T08:29:17.237Z,80.63
2023-07-26T08:31:43.624Z,77.26
2023-07-26T08:34:10.031Z,72.17
2023-07-26T08:36:36.444Z,68.32
2023-07-26T08:39:02.818Z,66.29
2023-07-26T08:41:31.695Z,63.45
2023-07-26T08:44:00.610Z,61.63
2023-07-26T08:46:28.612Z,60.32
2023-07-26T08:48:55.813Z,54.90
2023-07-26T08:51:23.088Z,56.64
2023-07-26T08:53:50.598Z,54.33
2023-07-26T08:56:17.595Z,52.64
2023-07-26T08:58:44.010Z,51.68
2023-07-26T09:01:10.691Z,49.75
2023-07-26T09:03:37.335Z,51.03
2023-07-26T09:06:06.339Z,50.80
2023-07-26T09:08:32.814Z,50.86
2023-07-26T09:10:59.349Z,48.14
2023-07-26T09:13:25.676Z,50.44
2023-07-26T09:15:52.135Z,48.94
2023-07-26T09:18:18.548Z,50.22
2023-07-26T09:20:44.921Z,48.20
2023-07-26T09:23:13.060Z,47.88
2023-07-26T09:25:44.697Z,49.56
2023-07-26T09:28:12.808Z,48.26
2023-07-26T09:30:43.873Z,49.86
2023-07-26T09:33:12.347Z,48.13
2023-07-26T09:35:52.016Z,49.25
2023-07-26T09:38:24.216Z,49.37
2023-07-26T09:40:50.847Z,50.61
2023-07-26T09:43:34.041Z,50.24
2023-07-26T09:46:07.042Z,51.60
2023-07-26T09:51:20.411Z,50.55
2023-07-26T09:53:48.380Z,49.43
2023-07-26T09:56:15.055Z,48.90
2023-07-26T09:58:43.841Z,50.35
2023-07-26T10:01:13.493Z,50.64
2023-07-26T10:03:42.264Z,49.66
2023-07-26T10:06:09.670Z,50.16
2023-07-26T10:08:38.861Z,50.92
2023-07-26T10:11:07.117Z,48.72
2023-07-26T10:13:34.889Z,47.55
2023-07-26T10:16:02.961Z,53.61
2023-07-26T10:18:31.774Z,49.62
2023-07-26T10:21:01.284Z,52.67
2023-07-26T10:23:29.603Z,52.50
2023-07-26T10:25:56.897Z,52.30
2023-07-26T10:28:24.704Z,50.00
2023-07-26T10:30:53.326Z,51.74
2023-07-26T10:33:19.904Z,49.29
2023-07-26T10:35:46.953Z,49.82
2023-07-26T10:38:13.458Z,46.84
2023-07-26T10:40:41.099Z,50.43
2023-07-26T10:43:17.739Z,53.19
2023-07-26T10:45:44.603Z,53.72
2023-07-26T10:48:15.216Z,55.23
2023-07-26T10:50:41.725Z,57.38
2023-07-26T10:53:37.275Z,61.40
2023-07-26T10:56:23.836Z,63.19
2023-07-26T10:58:53.529Z,61.08
2023-07-26T11:01:40.575Z,61.13
2023-07-26T11:04:10.926Z,59.71
2023-07-26T11:06:56.618Z,62.21
2023-07-26T11:09:28.025Z,62.54
2023-07-26T11:11:59.397Z,64.44
2023-07-26T11:14:31.704Z,66.17
2023-07-26T11:16:59.092Z,67.87
2023-07-26T11:19:25.652Z,65.17
2023-07-26T11:21:52.074Z,63.42
2023-07-26T11:24:27.396Z,63.31
2023-07-26T11:26:53.834Z,61.16
2023-07-26T11:29:21.555Z,58.28
2023-07-26T11:31:49.453Z,59.87
2023-07-26T11:34:15.821Z,59.55
2023-07-26T11:36:42.445Z,58.81
2023-07-26T11:39:19.295Z,58.94
2023-07-26T11:41:46.011Z,56.78
2023-07-26T11:44:13.981Z,55.31
2023-07-26T11:46:43.456Z,55.00
2023-07-26T11:49:21.179Z,52.40
2023-07-26T11:51:48.845Z,53.94
2023-07-26T11:54:15.532Z,54.21
2023-07-26T11:56:42.731Z,56.04
2023-07-26T11:59:10.248Z,57.13
2023-07-26T12:01:38.076Z,58.44
2023-07-26T12:04:15.119Z,56.94
2023-07-26T12:06:43.329Z,55.80
2023-07-26T12:09:10.140Z,57.25
2023-07-26T12:11:41.444Z,56.54
2023-07-26T12:14:08.198Z,59.95
2023-07-26T12:16:36.118Z,61.82
2023-07-26T12:19:03.108Z,64.95
2023-07-26T12:21:29.868Z,67.90
2023-07-26T12:24:03.616Z,71.00
2023-07-26T12:26:33.722Z,75.12
2023-07-26T12:29:02.688Z,77.47
2023-07-26T12:31:36.235Z,79.07
2023-07-26T12:34:04.338Z,80.24
2023-07-26T12:36:42.588Z,84.46
2023-07-26T12:39:10.043Z,83.16
2023-07-26T12:41:39.004Z,84.36
2023-07-26T12:44:08.075Z,82.68
2023-07-26T12:46:49.763Z,81.81
2023-07-26T12:49:21.890Z,79.08
2023-07-26T12:51:48.625Z,81.60
2023-07-26T12:54:15.089Z,77.98
2023-07-26T12:56:41.484Z,69.98
2023-07-26T12:59:09.216Z,69.65
2023-07-26T13:01:36.866Z,71.12
2023-07-26T13:04:03.411Z,65.85
2023-07-26T13:06:29.930Z,66.77
2023-07-26T13:08:56.378Z,70.76
2023-07-26T13:11:22.790Z,67.53
2023-07-26T13:13:49.196Z,67.66
2023-07-26T13:16:15.709Z,68.16
2023-07-26T13:18:42.252Z,67.77
2023-07-26T13:21:08.651Z,65.17
2023-07-26T13:23:35.085Z,65.84
2023-07-26T13:26:01.508Z,63.53
2023-07-26T13:28:27.890Z,64.05
2023-07-26T13:30:54.258Z,65.68
2023-07-26T13:33:20.769Z,65.15
2023-07-26T13:35:47.673Z,64.27
2023-07-26T13:38:14.102Z,64.76
2023-07-26T13:40:40.488Z,65.19
2023-07-26T13:43:06.886Z,65.04
2023-07-26T13:45:33.302Z,65.22
2023-07-26T13:47:59.751Z,65.52
2023-07-26T13:50:26.139Z,66.59
2023-07-26T13:52:52.545Z,67.25
2023-07-26T13:55:19.019Z,65.05
2023-07-26T13:57:45.611Z,65.79
2023-07-26T14:00:12.581Z,66.53
2023-07-26T14:02:39.293Z,67.08
2023-07-26T14:05:05.908Z,67.87
2023-07-26T14:07:32.245Z,68.46
2023-07-26T14:09:58.690Z,67.49
2023-07-26T14:12:25.084Z,66.88
2023-07-26T14:14:51.453Z,63.03
2023-07-26T14:17:17.959Z,64.12
2023-07-26T14:19:44.337Z,62.44
2023-07-26T14:22:10.846Z,62.79
2023-07-26T14:24:37.284Z,63.61
2023-07-26T14:27:03.853Z,63.69
2023-07-26T14:29:30.208Z,62.51
2023-07-26T14:31:56.620Z,64.96
2023-07-26T14:34:23.941Z,64.75
2023-07-26T14:36:50.483Z,65.21
2023-07-26T14:39:16.938Z,64.60
2023-07-26T14:41:43.347Z,63.92
2023-07-26T14:44:09.682Z,63.94
2023-07-26T14:46:36.249Z,65.08
2023-07-26T14:49:02.965Z,65.15
2023-07-26T14:51:29.294Z,65.51
2023-07-26T14:53:55.627Z,61.78
2023-07-26T14:56:21.991Z,61.66
2023-07-26T14:58:48.389Z,61.31
2023-07-26T15:01:14.799Z,62.14
2023-07-26T15:03:41.462Z,61.62
2023-07-26T15:06:07.926Z,61.26
2023-07-26T15:08:34.321Z,62.60
2023-07-26T15:11:00.753Z,63.03
2023-07-26T15:13:27.132Z,62.27
2023-07-26T15:15:53.534Z,62.40
2023-07-26T15:18:19.906Z,64.14
2023-07-26T15:20:46.348Z,62.19
2023-07-26T15:23:13.098Z,63.66
2023-07-26T15:25:39.833Z,62.57
2023-07-26T15:28:06.327Z,64.66
2023-07-26T15:30:36.225Z,63.65
2023-07-26T15:33:02.680Z,64.87
2023-07-26T15:35:32.466Z,64.46
2023-07-26T15:37:58.945Z,63.42
2023-07-26T15:40:26.676Z,59.55
2023-07-26T15:45:23.282Z,59.70
2023-07-26T15:47:49.722Z,59.68
2023-07-26T15:50:16.203Z,60.01
2023-07-26T15:52:42.732Z,59.72
2023-07-26T15:55:09.607Z,58.92
2023-07-26T15:57:36.041Z,58.06
2023-07-26T16:00:02.660Z,56.59
2023-07-26T16:02:29.490Z,57.52
2023-07-26T16:07:25.455Z,56.94
2023-07-26T16:09:51.993Z,56.32
2023-07-26T16:14:47.693Z,57.77
2023-07-26T16:17:14.130Z,58.19
2023-07-26T16:22:09.753Z,58.01
2023-07-26T16:24:36.249Z,57.89
2023-07-26T16:27:02.660Z,57.77
2023-07-26T16:29:29.083Z,57.72
2023-07-26T16:31:55.573Z,57.83
2023-07-26T16:34:22.024Z,58.39
2023-07-26T16:36:48.407Z,56.49
2023-07-26T16:39:14.785Z,57.07
2023-07-26T16:41:41.376Z,57.03
2023-07-26T16:44:07.809Z,57.63
2023-07-26T16:46:52.228Z,57.51
2023-07-26T16:49:21.602Z,57.47
2023-07-26T16:51:48.037Z,57.23
2023-07-26T16:54:14.385Z,58.34
2023-07-26T16:56:40.774Z,58.75
2023-07-26T16:59:07.211Z,58.80
2023-07-26T17:01:33.679Z,57.08
2023-07-26T17:04:00.087Z,57.98
2023-07-26T17:06:26.535Z,58.43
2023-07-26T17:08:52.947Z,58.00
2023-07-26T17:11:19.485Z,58.65
2023-07-26T17:13:45.830Z,58.79
2023-07-26T17:16:12.268Z,58.43
2023-07-26T17:18:40.235Z,59.11
2023-07-26T17:21:08.017Z,58.90
2023-07-26T17:23:34.599Z,57.39
2023-07-26T17:26:00.960Z,58.44
2023-07-26T17:28:27.345Z,57.17
2023-07-26T17:30:54.684Z,58.60
2023-07-26T17:33:21.530Z,59.62
2023-07-26T17:35:47.877Z,59.69
2023-07-26T17:38:14.258Z,59.72
2023-07-26T17:40:40.611Z,59.90
2023-07-26T17:43:07.994Z,59.40
2023-07-26T17:45:34.538Z,60.04
2023-07-26T17:48:01.095Z,60.00
2023-07-26T17:50:27.581Z,59.50
2023-07-26T17:52:54.069Z,60.50
2023-07-26T17:55:20.577Z,60.86
2023-07-26T17:57:58.900Z,60.78
2023-07-26T18:00:28.111Z,61.11
2023-07-26T18:02:54.519Z,61.02
2023-07-26T18:05:21.148Z,61.40
2023-07-26T18:07:47.489Z,61.50
2023-07-26T18:10:13.862Z,61.55
2023-07-26T18:12:40.347Z,61.75
2023-07-26T18:15:07.773Z,61.71
2023-07-26T18:17:34.735Z,61.70
2023-07-26T18:20:01.352Z,61.46
2023-07-26T18:22:27.865Z,61.65
2023-07-26T18:24:54.383Z,61.75
2023-07-26T18:27:20.897Z,61.89
2023-07-26T18:29:47.352Z,61.99
2023-07-26T18:32:13.706Z,62.16
2023-07-26T18:34:40.010Z,62.57
2023-07-26T18:37:06.424Z,63.17
2023-07-26T18:39:32.842Z,63.14
2023-07-26T18:41:59.241Z,63.13
2023-07-26T18:44:25.632Z,63.78
2023-07-26T18:46:52.360Z,64.25
2023-07-26T18:49:18.752Z,64.77
2023-07-26T18:51:45.137Z,65.24
2023-07-26T18:54:11.519Z,65.37
2023-07-26T18:56:37.885Z,65.58
2023-07-26T18:59:04.297Z,66.04
2023-07-26T19:01:30.658Z,66.42
2023-07-26T19:03:57.059Z,66.67
2023-07-26T19:06:23.437Z,67.12
2023-07-26T19:08:49.904Z,67.98
2023-07-26T19:11:16.277Z,67.88
2023-07-26T19:13:42.647Z,69.58
2023-07-26T19:16:09.458Z,69.51
2023-07-26T19:18:35.835Z,70.56
2023-07-26T19:21:03.752Z,72.77
2023-07-26T19:23:30.147Z,73.95
2023-07-26T19:25:56.648Z,75.25
2023-07-26T19:28:23.038Z,74.81
2023-07-26T19:30:49.415Z,75.02
2023-07-26T19:33:15.833Z,75.42
2023-07-26T19:35:42.204Z,76.21
2023-07-26T19:38:08.570Z,76.41
2023-07-26T19:40:37.621Z,77.68
2023-07-26T19:43:04.030Z,78.25
2023-07-26T19:45:30.436Z,77.90
2023-07-26T19:47:56.809Z,77.99
2023-07-26T19:50:23.212Z,78.85
2023-07-26T19:52:49.603Z,78.70
2023-07-26T19:55:15.963Z,79.15
2023-07-26T19:57:42.332Z,80.06
2023-07-26T20:00:09.215Z,80.55
2023-07-26T20:02:35.729Z,80.93
2023-07-26T20:05:02.163Z,82.02
2023-07-26T20:07:28.516Z,81.55
2023-07-26T20:09:54.904Z,81.82
2023-07-26T20:12:21.312Z,82.21
2023-07-26T20:14:47.663Z,82.58
2023-07-26T20:17:14.021Z,82.94
2023-07-26T20:19:40.377Z,83.30
2023-07-26T20:22:06.797Z,83.81
2023-07-26T20:24:33.150Z,84.42
2023-07-26T20:26:59.532Z,85.11
2023-07-26T20:29:25.893Z,85.49
2023-07-26T20:31:52.288Z,85.16
2023-07-26T20:34:18.646Z,84.98
2023-07-26T20:36:45.002Z,85.51
2023-07-26T20:39:11.340Z,85.71
2023-07-26T20:41:37.706Z,85.81
2023-07-26T20:44:04.241Z,85.93
2023-07-26T20:46:30.638Z,86.45
2023-07-26T20:48:57.002Z,86.18
2023-07-26T20:51:23.416Z,86.15
2023-07-26T20:53:49.762Z,86.88
2023-07-26T20:56:16.145Z,87.53
2023-07-26T20:58:42.486Z,87.99
2023-07-26T21:01:08.885Z,87.96
2023-07-26T21:03:35.356Z,88.52
2023-07-26T21:06:01.805Z,89.00
2023-07-26T21:08:28.196Z,89.57
2023-07-26T21:10:54.623Z,89.97
2023-07-26T21:13:20.984Z,90.20
2023-07-26T21:15:47.415Z,90.67
2023-07-26T21:18:13.838Z,91.31
2023-07-26T21:20:41.155Z,91.47
2023-07-26T21:23:07.530Z,91.90
2023-07-26T21:25:33.881Z,93.69
2023-07-26T21:28:00.241Z,94.11
2023-07-26T21:30:26.595Z,94.12
2023-07-26T21:32:52.935Z,94.18
2023-07-26T21:35:19.375Z,93.92
2023-07-26T21:37:45.717Z,93.81
2023-07-26T21:40:12.180Z,93.46
2023-07-26T21:42:38.542Z,93.16
2023-07-26T21:45:05.492Z,93.87
2023-07-26T21:47:31.865Z,94.02
2023-07-26T21:49:58.242Z,93.92
2023-07-26T21:52:24.578Z,93.89
2023-07-26T21:54:50.905Z,93.69
2023-07-26T21:57:17.319Z,93.87
2023-07-26T21:59:43.658Z,93.62
2023-07-26T22:02:10.048Z,93.83
2023-07-26T22:04:36.489Z,93.79
2023-07-26T22:07:03.318Z,93.96
2023-07-26T22:09:31.306Z,93.65
2023-07-26T22:11:57.632Z,94.36
2023-07-26T22:14:23.995Z,94.18
2023-07-26T22:16:50.505Z,94.48
2023-07-26T22:19:16.898Z,94.44
2023-07-26T22:21:43.290Z,94.06
2023-07-26T22:24:09.711Z,94.43
2023-07-26T22:26:36.246Z,94.24
2023-07-26T22:29:02.803Z,94.71
2023-07-26T22:31:29.456Z,94.98
2023-07-26T22:33:56.072Z,93.97
2023-07-26T22:36:22.665Z,93.63
2023-07-26T22:38:49.065Z,93.90
2023-07-26T22:41:15.433Z,93.47
2023-07-26T22:43:46.034Z,92.94
2023-07-26T22:46:13.110Z,93.63
2023-07-26T22:48:41.394Z,93.58
2023-07-26T22:51:07.768Z,93.95
2023-07-26T22:53:34.138Z,93.62
2023-07-26T22:56:00.501Z,93.05
2023-07-26T22:58:26.989Z,93.66
2023-07-26T23:01:04.541Z,93.66
2023-07-26T23:03:31.789Z,93.76
2023-07-26T23:05:59.720Z,93.62
2023-07-26T23:08:26.966Z,93.83
2023-07-26T23:11:04.671Z,93.54
2023-07-26T23:13:33.085Z,93.96
2023-07-26T23:16:00.568Z,93.72
2023-07-26T23:18:27.746Z,94.18
2023-07-26T23:20:55.041Z,94.14
2023-07-26T23:23:23.624Z,93.85
2023-07-26T23:25:50.796Z,93.85
2023-07-26T23:28:17.473Z,93.61
2023-07-26T23:30:51.574Z,93.51
2023-07-26T23:33:18.934Z,93.16
2023-07-26T23:35:46.599Z,93.85
2023-07-26T23:38:13.358Z,93.88
2023-07-26T23:40:40.482Z,94.03
2023-07-26T23:43:09.079Z,94.38
2023-07-26T23:45:36.564Z,94.67
2023-07-26T23:48:03.648Z,94.80
2023-07-26T23:50:30.135Z,95.15
2023-07-26T23:52:56.550Z,95.16
2023-07-26T23:55:22.976Z,95.43
2023-07-26T23:57:49.310Z,95.90
